Hudson, New York
Current Conditions -  °F | °C
As of 1:54 AM on Friday 19 Dec 2014 (Local Time) from KPSF Reporting Station
Overcast Overcast  
Wind Chill: 18°   Ceiling: 1500
Heat Index: 28°   Visibility: 10mi
Dew Point: 23°   Wind: 12mph
Humidity: 81%   Direction: 280°W
Pressure: 29.88"   Gusts: NA
Location:  42.25°N, 73.79°W
Report Text: KPSF 190654Z AUTO 28010KT 10SM BKN015 OVC020 M02/M05 A2988 RMK AO2 SLP128 T10221050
Loading
Personal Weather Stations






























Interactive Weather Map New forecast layout! Learn more

10-Day Weather Forecast

Advertisements
Track Severe Weather on mobile